Time;durP1;ratioP1;P1;durP2;ratioP2;P2;SDS_P1;SDS_P2;PMS_P1;PMS_P2;Temp;Humidity;BMP_temperature;BMP_pressure;BME280_temperature;BME280_humidity;BME280_pressure;Samples;Min_cycle;Max_cycle;Signal;HPM_P1;HPM_P2
2023/07/24 04:22:34;;;;;;;9.90;5.68;;;;;;;17.16;100.00;99261.69;5089408;28;20751;-63
2023/07/24 04:24:59;;;;;;;9.07;5.88;;;;;;;17.19;100.00;99269.25;5089553;28;20044;-63
2023/07/24 04:27:24;;;;;;;8.30;5.85;;;;;;;17.19;100.00;99263.06;5089238;28;20106;-63
2023/07/24 04:29:50;;;;;;;9.10;5.72;;;;;;;17.23;100.00;99266.91;5089180;28;20115;-63
2023/07/24 04:32:15;;;;;;;9.27;6.20;;;;;;;17.24;100.00;99265.84;5089355;28;20036;-64
2023/07/24 04:34:40;;;;;;;9.98;6.20;;;;;;;17.25;100.00;99265.59;5089328;28;20062;-64
2023/07/24 04:37:06;;;;;;;8.90;5.32;;;;;;;17.30;100.00;99257.63;5089318;28;20104;-62
2023/07/24 04:39:31;;;;;;;8.55;5.97;;;;;;;17.32;100.00;99260.91;5088927;28;20024;-62
2023/07/24 04:41:57;;;;;;;8.02;5.40;;;;;;;17.36;100.00;99255.84;5088998;28;20388;-64
2023/07/24 04:44:22;;;;;;;9.35;5.78;;;;;;;17.41;100.00;99257.81;5089118;28;20051;-61
2023/07/24 04:46:47;;;;;;;9.27;5.93;;;;;;;17.45;100.00;99251.69;5081495;28;20032;-63
2023/07/24 04:49:13;;;;;;;9.98;5.68;;;;;;;17.47;100.00;99241.50;5088277;28;20493;-65
2023/07/24 04:51:38;;;;;;;10.40;5.88;;;;;;;17.50;100.00;99241.03;5088806;28;20078;-64
2023/07/24 04:54:03;;;;;;;8.65;5.60;;;;;;;17.57;100.00;99241.69;5088956;28;20028;-64
2023/07/24 04:56:29;;;;;;;8.57;5.38;;;;;;;17.61;100.00;99242.84;5088762;28;20039;-62
2023/07/24 04:58:54;;;;;;;9.18;5.70;;;;;;;17.68;100.00;99241.88;5088535;28;20040;-60
2023/07/24 05:01:20;;;;;;;9.52;6.13;;;;;;;17.68;100.00;99249.97;5088668;28;20397;-62
2023/07/24 05:03:45;;;;;;;8.70;5.65;;;;;;;17.72;100.00;99260.00;5088636;28;20056;-62
2023/07/24 05:06:10;;;;;;;10.63;6.35;;;;;;;17.77;100.00;99261.97;5088655;28;20043;-60
2023/07/24 05:08:36;;;;;;;9.35;7.03;;;;;;;17.80;100.00;99266.88;5088322;28;20455;-61
2023/07/24 05:11:01;;;;;;;7.75;5.90;;;;;;;17.82;100.00;99272.84;5088610;28;20032;-62
2023/07/24 05:13:26;;;;;;;8.13;5.25;;;;;;;17.83;100.00;99272.59;5088629;28;20036;-60
2023/07/24 05:15:52;;;;;;;7.00;5.60;;;;;;;17.86;100.00;99276.66;5088425;28;20098;-60
2023/07/24 05:18:17;;;;;;;7.47;5.43;;;;;;;17.85;100.00;99278.53;5088211;28;20515;-61
2023/07/24 05:20:46;;;;;;;10.40;6.13;;;;;;;17.87;100.00;99278.31;5088273;28;20394;-60
2023/07/24 05:23:11;;;;;;;9.10;5.90;;;;;;;17.88;100.00;99288.84;5088337;28;20121;-60
2023/07/24 05:25:37;;;;;;;15.63;12.02;;;;;;;17.91;100.00;99284.84;5088337;28;20109;-60
2023/07/24 05:28:02;;;;;;;9.77;5.82;;;;;;;17.96;100.00;99287.63;5088246;28;20039;-61
2023/07/24 05:30:28;;;;;;;10.80;6.78;;;;;;;17.94;100.00;99287.06;5087880;28;20036;-61
2023/07/24 05:32:53;;;;;;;9.32;6.43;;;;;;;17.97;100.00;99289.25;5080453;28;20036;-60
2023/07/24 05:35:19;;;;;;;7.18;5.38;;;;;;;17.96;100.00;99289.50;5074626;28;20040;-60
2023/07/24 05:37:44;;;;;;;8.05;5.07;;;;;;;17.96;100.00;99298.41;5074579;28;20040;-61
2023/07/24 05:40:10;;;;;;;11.18;5.88;;;;;;;18.00;100.00;99301.44;5074329;28;20045;-58
2023/07/24 05:42:41;;;;;;;8.20;5.70;;;;;;;18.03;100.00;99315.22;5074513;28;20087;-60
2023/07/24 05:45:07;;;;;;;10.55;6.10;;;;;;;18.00;100.00;99309.53;5074461;28;20102;-60
2023/07/24 05:47:33;;;;;;;9.98;5.15;;;;;;;18.04;100.00;99307.94;5074370;28;20032;-59
2023/07/24 05:49:58;;;;;;;8.43;5.28;;;;;;;18.00;100.00;99315.72;5074117;28;20047;-59
2023/07/24 05:52:24;;;;;;;10.15;5.75;;;;;;;18.02;100.00;99318.16;5074255;28;20041;-60
2023/07/24 05:54:49;;;;;;;8.65;5.80;;;;;;;18.05;100.00;99313.09;5074626;28;20040;-61
2023/07/24 05:57:14;;;;;;;8.02;5.22;;;;;;;18.11;100.00;99317.50;5074128;28;20068;-59
2023/07/24 05:59:40;;;;;;;8.98;5.45;;;;;;;18.15;100.00;99313.28;5073901;28;20086;-60
2023/07/24 06:02:07;;;;;;;9.55;5.90;;;;;;;18.19;100.00;99316.28;5074157;28;20064;-59
2023/07/24 06:04:32;;;;;;;8.90;5.72;;;;;;;18.22;100.00;99313.09;5074151;28;20032;-61
2023/07/24 06:06:58;;;;;;;10.27;5.72;;;;;;;18.28;100.00;99312.13;5074023;28;20545;-60
2023/07/24 06:09:23;;;;;;;9.50;6.10;;;;;;;18.33;100.00;99311.41;5073737;28;20463;-59
2023/07/24 06:11:49;;;;;;;8.55;5.80;;;;;;;18.34;100.00;99311.13;5073877;28;20556;-61
2023/07/24 06:14:14;;;;;;;7.85;5.30;;;;;;;18.38;100.00;99306.06;5073939;28;20040;-61
2023/07/24 06:16:39;;;;;;;7.85;5.18;;;;;;;18.41;100.00;99297.50;5073881;28;20104;-61
2023/07/24 06:19:05;;;;;;;10.05;5.47;;;;;;;18.46;100.00;99297.56;5073451;28;20040;-61
2023/07/24 06:21:30;;;;;;;29.88;19.58;;;;;;;18.49;100.00;99304.34;5073744;28;20486;-61
2023/07/24 06:23:56;;;;;;;12.55;7.93;;;;;;;18.54;100.00;99315.22;5073741;28;20045;-59
2023/07/24 06:26:21;;;;;;;8.63;6.32;;;;;;;18.55;100.00;99314.13;5073520;28;20123;-60
2023/07/24 06:28:47;;;;;;;13.25;8.88;;;;;;;18.57;100.00;99307.41;5073302;28;20039;-61
2023/07/24 06:31:12;;;;;;;9.32;6.03;;;;;;;18.60;100.00;99306.13;5073586;28;20043;-62
2023/07/24 06:33:37;;;;;;;11.00;6.53;;;;;;;18.63;100.00;99306.44;5073546;28;20033;-62
2023/07/24 06:36:03;;;;;;;8.18;5.13;;;;;;;18.69;100.00;99308.16;5073460;28;20043;-61
2023/07/24 06:38:29;;;;;;;10.18;5.53;;;;;;;18.74;100.00;99317.41;5073215;28;20663;-61
2023/07/24 06:40:54;;;;;;;7.13;5.50;;;;;;;18.70;100.00;99327.84;5073513;28;20485;-59
2023/07/24 06:43:19;;;;;;;7.60;5.03;;;;;;;18.66;100.00;99308.69;5073112;28;20043;-59
2023/07/24 06:45:45;;;;;;;7.70;5.10;;;;;;;18.73;100.00;99305.81;5072749;28;20060;-61
2023/07/24 06:48:10;;;;;;;8.55;5.75;;;;;;;18.79;100.00;99302.09;5073213;28;20099;-61
2023/07/24 06:50:36;;;;;;;9.32;5.28;;;;;;;18.80;100.00;99306.44;5073006;28;20436;-60
2023/07/24 06:53:01;;;;;;;9.02;5.60;;;;;;;18.80;100.00;99294.84;5073162;28;20033;-61
2023/07/24 06:55:26;;;;;;;6.60;5.15;;;;;;;18.84;100.00;99298.63;5073107;28;20041;-61
2023/07/24 06:57:52;;;;;;;9.10;5.80;;;;;;;18.86;100.00;99286.56;5073086;28;20086;-61
2023/07/24 07:00:17;;;;;;;10.05;5.57;;;;;;;18.93;100.00;99291.75;5072773;28;20158;-60
2023/07/24 07:02:43;;;;;;;19.85;13.13;;;;;;;18.96;100.00;99281.25;5073166;28;20040;-61
2023/07/24 07:05:08;;;;;;;15.00;9.50;;;;;;;19.04;100.00;99295.38;5072846;28;20390;-61
2023/07/24 07:07:34;;;;;;;7.75;5.63;;;;;;;19.04;100.00;99292.69;5072975;28;20044;-61
2023/07/24 07:09:59;;;;;;;10.48;5.18;;;;;;;19.07;100.00;99311.09;5072528;28;20036;-60
2023/07/24 07:12:24;;;;;;;9.13;5.13;;;;;;;19.08;100.00;99326.22;5072756;28;20048;-62
2023/07/24 07:14:50;;;;;;;10.57;5.55;;;;;;;18.75;100.00;99332.53;5072853;28;20374;-62
2023/07/24 07:17:15;;;;;;;7.70;5.50;;;;;;;18.52;100.00;99349.66;5072720;28;20040;-62
2023/07/24 07:19:40;;;;;;;8.20;6.40;;;;;;;18.41;100.00;99327.16;5072365;28;20041;-62
2023/07/24 07:22:06;;;;;;;9.18;6.10;;;;;;;18.30;100.00;99315.38;5072622;28;20060;-62
2023/07/24 07:24:31;;;;;;;10.77;6.60;;;;;;;18.24;100.00;99326.31;5072577;28;20532;-61
2023/07/24 07:26:57;;;;;;;10.73;5.93;;;;;;;18.18;100.00;99320.03;5072445;28;20400;-62
2023/07/24 07:29:22;;;;;;;9.68;6.13;;;;;;;18.19;100.00;99318.97;5072099;28;20066;-62
2023/07/24 07:31:47;;;;;;;12.30;6.50;;;;;;;18.24;100.00;99327.16;5072546;28;20032;-61
2023/07/24 07:34:13;;;;;;;10.90;6.63;;;;;;;18.27;100.00;99329.38;5072381;28;20394;-63
2023/07/24 07:36:38;;;;;;;15.45;7.07;;;;;;;18.29;100.00;99321.84;5071244;28;20039;-61
2023/07/24 07:39:04;;;;;;;8.82;5.45;;;;;;;18.29;100.00;99335.31;5072079;28;20047;-63
2023/07/24 07:41:29;;;;;;;12.30;6.10;;;;;;;18.30;100.00;99355.00;5072396;28;20119;-63
2023/07/24 07:43:54;;;;;;;10.18;6.65;;;;;;;18.34;100.00;99372.34;5072313;28;20079;-62
2023/07/24 07:46:20;;;;;;;9.95;6.22;;;;;;;18.35;100.00;99382.06;5070970;28;20043;-62
2023/07/24 07:48:49;;;;;;;10.90;6.60;;;;;;;18.37;100.00;99378.03;5071970;28;20048;-61
2023/07/24 07:51:14;;;;;;;11.50;7.00;;;;;;;18.41;100.00;99364.91;5070853;28;20036;-63
2023/07/24 07:53:40;;;;;;;11.68;7.22;;;;;;;18.43;100.00;99360.06;5072395;28;20089;-62
2023/07/24 07:56:05;;;;;;;9.98;6.65;;;;;;;18.49;100.00;99350.19;5071844;28;20044;-62
2023/07/24 07:58:31;;;;;;;9.27;6.22;;;;;;;18.48;100.00;99341.28;5071923;28;20131;-61
2023/07/24 08:00:56;;;;;;;8.68;6.13;;;;;;;18.55;100.00;99347.31;5071688;28;20111;-63
2023/07/24 08:03:22;;;;;;;10.32;6.57;;;;;;;18.54;100.00;99348.38;5059881;28;20397;-62
2023/07/24 08:05:47;;;;;;;9.35;6.30;;;;;;;18.58;100.00;99351.38;5061228;28;20046;-63
2023/07/24 08:08:13;;;;;;;10.60;6.38;;;;;;;18.61;100.00;99359.00;5061270;28;20048;-61
2023/07/24 08:10:39;;;;;;;10.95;5.45;;;;;;;18.64;100.00;99340.41;5059472;28;20071;-60
2023/07/24 08:13:04;;;;;;;8.57;6.00;;;;;;;18.70;100.00;99323.28;5061648;28;20044;-63
2023/07/24 08:15:37;;;;;;;11.13;6.38;;;;;;;18.79;100.00;99312.09;5058968;28;20033;-63
2023/07/24 08:18:04;;;;;;;10.88;6.80;;;;;;;18.88;100.00;99302.47;5058655;28;20029;-60
2023/07/24 08:20:30;;;;;;;11.25;6.35;;;;;;;18.98;100.00;99291.84;5060283;28;20093;-61
2023/07/24 08:22:55;;;;;;;9.23;6.35;;;;;;;19.04;100.00;99304.31;5061394;28;20667;-62
2023/07/24 08:25:20;;;;;;;10.52;7.00;;;;;;;19.10;100.00;99295.19;5059310;28;20052;-61
2023/07/24 08:27:46;;;;;;;9.43;6.80;;;;;;;19.16;100.00;99280.69;5044369;28;20024;-61
2023/07/24 08:30:11;;;;;;;10.43;5.75;;;;;;;19.27;100.00;99291.63;5060026;28;20096;-62
2023/07/24 08:32:37;;;;;;;9.90;6.90;;;;;;;19.37;100.00;99292.56;5061587;28;20510;-62
2023/07/24 08:35:02;;;;;;;13.32;6.10;;;;;;;19.48;100.00;99294.28;5059466;28;20040;-62
2023/07/24 08:37:28;;;;;;;9.07;5.95;;;;;;;19.58;100.00;99285.50;5060720;28;20115;-61
2023/07/24 08:39:53;;;;;;;8.45;6.07;;;;;;;19.69;100.00;99294.50;5060501;28;20502;-62
2023/07/24 08:42:20;;;;;;;10.43;6.43;;;;;;;19.80;100.00;99298.94;5059333;28;20032;-60
2023/07/24 08:44:45;;;;;;;9.70;5.97;;;;;;;19.84;100.00;99296.56;5061179;28;20046;-62
2023/07/24 08:47:14;;;;;;;9.88;5.82;;;;;;;19.85;100.00;99290.88;5060434;28;20037;-61
2023/07/24 08:49:42;;;;;;;10.38;5.50;;;;;;;20.09;100.00;99291.38;5058277;28;20033;-62
2023/07/24 08:52:09;;;;;;;7.38;5.57;;;;;;;20.20;100.00;99293.06;5060540;28;20043;-60
2023/07/24 08:54:38;;;;;;;7.30;5.03;;;;;;;20.42;100.00;99292.13;5060911;28;20723;-63
2023/07/24 08:57:06;;;;;;;9.00;5.70;;;;;;;20.54;100.00;99290.91;5059261;28;20490;-62
2023/07/24 08:59:31;;;;;;;10.00;5.70;;;;;;;20.70;100.00;99282.84;5059882;28;20036;-63
2023/07/24 09:01:57;;;;;;;9.68;6.28;;;;;;;20.83;100.00;99287.81;5061101;28;20390;-63
2023/07/24 09:04:24;;;;;;;10.63;5.97;;;;;;;20.94;100.00;99286.78;5059197;28;20041;-60
2023/07/24 09:06:50;;;;;;;8.65;5.35;;;;;;;21.29;100.00;99290.72;5060148;28;20041;-61
2023/07/24 09:09:16;;;;;;;9.45;5.45;;;;;;;21.63;100.00;99296.47;5064010;28;20033;-61
2023/07/24 09:11:53;;;;;;;10.85;5.15;;;;;;;21.82;100.00;99305.72;5062878;28;20398;-59
2023/07/24 09:14:30;;;;;;;;;;;;;;;21.97;100.00;99301.38;5063257;28;20033;-62
2023/07/24 09:17:06;;;;;;;;;;;;;;;22.28;100.00;99308.47;5063398;28;20065;-61
2023/07/24 09:19:31;;;;;;;8.23;4.93;;;;;;;22.43;100.00;99322.03;5066736;28;19943;-61
2023/07/24 09:22:11;;;;;;;8.48;5.20;;;;;;;22.45;100.00;99313.63;5063082;28;20557;-62
2023/07/24 09:24:37;;;;;;;7.72;5.32;;;;;;;22.44;100.00;99306.56;5063242;28;20044;-61
2023/07/24 09:27:05;;;;;;;8.27;5.75;;;;;;;22.60;100.00;99304.63;5063533;28;20028;-60
2023/07/24 09:29:32;;;;;;;8.35;4.75;;;;;;;22.69;100.00;99308.38;5064373;28;20039;-61
2023/07/24 09:31:59;;;;;;;7.35;5.15;;;;;;;22.70;100.00;99310.84;5064662;28;20409;-63
2023/07/24 09:34:25;;;;;;;7.43;4.93;;;;;;;22.65;100.00;99304.63;5064071;28;20474;-62
2023/07/24 09:36:51;;;;;;;9.27;5.17;;;;;;;22.57;100.00;99306.00;5062212;28;20115;-60
2023/07/24 09:39:23;;;;;;;6.78;4.28;;;;;;;22.46;100.00;99301.66;5062755;28;20119;-63
2023/07/24 09:41:49;;;;;;;9.52;5.65;;;;;;;22.31;100.00;99301.69;5064519;28;20025;-61
2023/07/24 09:44:15;;;;;;;6.03;3.97;;;;;;;22.29;100.00;99310.09;5062652;28;20029;-61
2023/07/24 09:46:43;;;;;;;6.50;4.63;;;;;;;22.25;100.00;99317.16;5063610;28;20087;-60
2023/07/24 09:49:09;;;;;;;7.45;4.75;;;;;;;22.16;100.00;99319.59;5062676;28;20437;-61
2023/07/24 09:51:34;;;;;;;7.07;4.95;;;;;;;22.06;100.00;99308.72;5062324;28;20033;-62
2023/07/24 09:54:29;;;;;;;6.38;4.68;;;;;;;21.99;100.00;99301.94;5063394;28;20029;-61
2023/07/24 09:56:55;;;;;;;6.78;4.95;;;;;;;21.88;100.00;99288.38;5062320;28;20478;-62
2023/07/24 09:59:22;;;;;;;8.15;4.57;;;;;;;21.81;100.00;99295.16;5062935;28;20086;-60
2023/07/24 10:01:48;;;;;;;7.50;4.95;;;;;;;21.73;100.00;99299.22;5063785;28;20031;-60
2023/07/24 10:04:15;;;;;;;7.35;4.85;;;;;;;21.61;100.00;99285.91;5061380;28;20036;-61
2023/07/24 10:06:42;;;;;;;7.70;4.70;;;;;;;21.57;100.00;99292.94;5068866;28;20041;-62
2023/07/24 10:09:08;;;;;;;5.90;4.22;;;;;;;21.47;100.00;99284.81;5073877;28;20095;-62
2023/07/24 10:11:34;;;;;;;7.15;4.78;;;;;;;21.59;100.00;99292.69;5073976;28;20498;-61
2023/07/24 10:14:00;;;;;;;6.28;4.50;;;;;;;21.47;100.00;99297.53;5074039;28;20047;-61
2023/07/24 10:16:26;;;;;;;6.83;4.37;;;;;;;21.24;100.00;99296.88;5073964;28;20052;-62
2023/07/24 10:18:51;;;;;;;8.75;4.78;;;;;;;21.14;100.00;99297.69;5073619;28;20037;-59
2023/07/24 10:21:16;;;;;;;7.20;4.47;;;;;;;21.07;100.00;99293.59;5073781;28;20071;-62
2023/07/24 10:23:44;;;;;;;7.20;4.97;;;;;;;20.98;100.00;99295.16;5073839;28;20068;-60
2023/07/24 10:26:10;;;;;;;7.82;4.72;;;;;;;20.89;100.00;99286.75;5073567;28;20041;-61
2023/07/24 10:28:40;;;;;;;6.80;5.13;;;;;;;20.83;100.00;99276.97;5073694;28;20395;-62
2023/07/24 10:31:18;;;;;;;7.43;4.95;;;;;;;20.77;100.00;99278.03;5073677;28;20516;-62
2023/07/24 10:33:45;;;;;;;5.95;4.25;;;;;;;20.70;100.00;99285.56;5073657;28;20514;-61
2023/07/24 10:36:13;;;;;;;7.05;4.72;;;;;;;20.63;100.00;99277.69;5073468;28;20067;-61
2023/07/24 10:38:40;;;;;;;7.10;4.97;;;;;;;20.56;100.00;99269.81;5073126;28;20063;-60
2023/07/24 10:41:08;;;;;;;7.90;4.50;;;;;;;20.49;100.00;99271.94;5073382;28;20032;-62
2023/07/24 10:43:40;;;;;;;7.00;4.88;;;;;;;20.47;100.00;99267.84;5073474;28;20507;-59
2023/07/24 10:46:06;;;;;;;7.25;4.57;;;;;;;20.42;100.00;99267.81;5073194;28;20048;-59
2023/07/24 10:48:31;;;;;;;7.38;4.55;;;;;;;20.40;100.00;99254.50;5072925;28;20047;-61
2023/07/24 10:50:56;;;;;;;6.57;4.13;;;;;;;20.40;100.00;99251.00;5073202;28;20041;-61
2023/07/24 10:53:23;;;;;;;7.88;4.57;;;;;;;20.41;100.00;99248.06;5073157;28;20122;-61
2023/07/24 10:55:51;;;;;;;10.18;5.25;;;;;;;20.42;100.00;99255.09;5073030;28;20119;-61
2023/07/24 10:58:16;;;;;;;6.22;4.35;;;;;;;20.44;100.00;99244.00;5072762;28;20121;-61
2023/07/24 11:00:43;;;;;;;7.18;4.45;;;;;;;20.50;100.00;99226.75;5073010;28;20485;-61
2023/07/24 11:03:13;;;;;;;7.35;4.53;;;;;;;20.55;100.00;99221.38;5072942;28;20028;-61
2023/07/24 11:05:43;;;;;;;5.03;4.07;;;;;;;20.61;100.00;99204.09;5072811;28;20029;-61
2023/07/24 11:08:15;;;;;;;7.47;4.65;;;;;;;20.66;100.00;99198.69;5072924;28;20047;-61
2023/07/24 11:10:53;;;;;;;7.25;4.47;;;;;;;20.70;100.00;99197.09;5072636;28;20125;-61
2023/07/24 11:13:27;;;;;;;6.72;4.22;;;;;;;20.68;100.00;99198.44;5072846;28;20113;-61
2023/07/24 11:15:53;;;;;;;6.90;4.75;;;;;;;20.76;100.00;99193.31;5072791;28;20043;-62
2023/07/24 11:18:21;;;;;;;6.22;4.05;;;;;;;20.82;100.00;99199.56;5072442;28;20125;-61
2023/07/24 11:20:55;;;;;;;5.97;4.38;;;;;;;20.84;100.00;99198.22;5072480;28;20477;-61
2023/07/24 11:23:21;;;;;;;5.68;4.10;;;;;;;20.96;100.00;99197.19;5072606;28;20409;-61
2023/07/24 11:25:50;;;;;;;5.70;3.97;;;;;;;21.24;100.00;99198.59;5072618;28;20048;-61
2023/07/24 11:28:16;;;;;;;5.38;4.25;;;;;;;21.60;100.00;99202.19;5072174;28;20523;-61
2023/07/24 11:30:42;;;;;;;6.30;4.22;;;;;;;21.92;100.00;99216.28;5071959;28;20051;-62
2023/07/24 11:33:09;;;;;;;5.63;4.10;;;;;;;22.37;100.00;99228.19;5072332;28;20385;-62
2023/07/24 11:35:35;;;;;;;6.60;4.82;;;;;;;22.54;100.00;99237.88;5072469;28;20033;-60
2023/07/24 11:38:01;;;;;;;6.05;4.07;;;;;;;22.52;100.00;99234.66;5072373;28;20485;-61
2023/07/24 11:40:45;;;;;;;5.50;4.05;;;;;;;22.49;100.00;99238.69;5071306;28;20396;-59
2023/07/24 11:43:19;;;;;;;5.15;3.72;;;;;;;22.42;100.00;99230.84;5072402;28;20493;-56
2023/07/24 11:45:45;;;;;;;5.45;3.83;;;;;;;22.39;100.00;99234.13;5072210;28;20508;-60
2023/07/24 11:48:12;;;;;;;5.45;3.75;;;;;;;22.38;100.00;99240.66;5072182;28;20029;-57
2023/07/24 11:50:45;;;;;;;6.88;4.47;;;;;;;22.35;96.41;99252.03;5071973;28;20127;-57
2023/07/24 11:53:25;;;;;;;5.03;3.85;;;;;;;22.23;98.82;99261.53;5072159;28;20044;-56
2023/07/24 11:55:54;;;;;;;5.55;3.83;;;;;;;22.20;100.00;99254.78;5072149;28;20102;-57
2023/07/24 11:58:21;;;;;;;6.45;4.38;;;;;;;22.32;97.19;99254.50;5071810;28;20119;-58
2023/07/24 12:00:47;;;;;;;7.28;3.95;;;;;;;22.37;96.65;99257.19;5072127;28;20040;-60
2023/07/24 12:03:25;;;;;;;6.60;3.97;;;;;;;22.36;94.23;99261.78;5071980;28;20040;-57
2023/07/24 12:05:52;;;;;;;6.22;4.18;;;;;;;22.36;93.97;99255.56;5072153;28;20102;-58
2023/07/24 12:08:21;;;;;;;5.93;4.30;;;;;;;22.30;92.60;99257.50;5071653;28;20040;-60
2023/07/24 12:10:46;;;;;;;5.72;3.83;;;;;;;22.32;93.92;99254.50;5068841;28;20051;-60
2023/07/24 12:13:12;;;;;;;7.10;3.80;;;;;;;22.44;91.76;99244.97;5060546;28;20036;-59
2023/07/24 12:15:37;;;;;;;5.80;3.97;;;;;;;22.52;88.14;99240.06;5061880;28;20025;-58
2023/07/24 12:18:04;;;;;;;5.90;4.35;;;;;;;22.82;86.78;99242.69;5062512;28;20029;-59
2023/07/24 12:20:31;;;;;;;6.03;4.13;;;;;;;22.86;86.36;99229.34;5054302;28;20417;-59
2023/07/24 12:22:56;;;;;;;4.93;3.53;;;;;;;22.83;83.76;99222.59;5051899;28;20072;-57
2023/07/24 12:25:22;;;;;;;5.95;3.60;;;;;;;22.85;86.15;99223.13;5051890;28;20043;-56
2023/07/24 12:27:48;;;;;;;6.82;4.18;;;;;;;23.11;79.17;99212.97;5051979;28;20036;-59
2023/07/24 12:30:13;;;;;;;6.03;3.90;;;;;;;24.05;77.76;99210.91;5051616;28;20091;-59
2023/07/24 12:32:39;;;;;;;6.05;3.83;;;;;;;24.85;75.37;99202.16;5051873;28;20095;-60
2023/07/24 12:35:05;;;;;;;6.13;3.60;;;;;;;25.59;69.73;99205.19;5051831;28;20033;-58
2023/07/24 12:37:31;;;;;;;5.68;4.10;;;;;;;26.16;65.66;99205.09;5054268;28;20047;-60
2023/07/24 12:40:29;;;;;;;5.55;3.55;;;;;;;26.34;59.14;99204.16;5045084;28;20104;-60
2023/07/24 12:43:46;;;;;;;6.22;4.38;;;;;;;26.86;56.28;99176.66;5064966;28;20116;-55
2023/07/24 12:47:00;;;;;;;5.72;3.65;;;;;;;27.05;54.95;99180.91;5065323;28;20029;-56
2023/07/24 12:50:12;;;;;;;;;;;;;;;26.62;55.33;99172.28;5054449;28;20556;-58
2023/07/24 12:52:45;;;;;;;5.18;3.55;;;;;;;25.51;56.07;99172.38;5061238;28;20007;-59
2023/07/24 12:55:54;;;;;;;5.22;3.50;;;;;;;25.41;58.55;99174.13;5065351;28;20452;-57
2023/07/24 12:58:55;;;;;;;6.78;3.83;;;;;;;25.33;59.98;99172.09;5053221;28;20040;-55
2023/07/24 13:04:23;;;;;;;6.07;3.70;;;;;;;25.54;58.17;99169.03;5060758;28;20116;-58
2023/07/24 13:07:06;;;;;;;5.53;3.75;;;;;;;25.39;58.25;99156.47;5060593;28;20041;-57
2023/07/24 13:09:56;;;;;;;5.90;3.88;;;;;;;25.99;56.98;99148.34;5057311;28;20037;-58
2023/07/24 13:12:35;;;;;;;6.07;4.00;;;;;;;26.02;56.10;99153.22;5049564;28;20134;-57
2023/07/24 13:15:38;;;;;;;5.47;3.53;;;;;;;26.11;55.51;99142.41;5055058;28;20037;-57
2023/07/24 13:18:38;;;;;;;7.15;3.78;;;;;;;25.95;56.72;99145.44;5055217;28;20029;-57
2023/07/24 13:21:29;;;;;;;7.85;4.03;;;;;;;26.26;54.97;99133.91;5055216;28;20116;-55
2023/07/24 13:24:18;;;;;;;7.00;3.85;;;;;;;26.34;55.94;99135.13;5054589;28;20536;-58
2023/07/24 13:26:49;;;;;;;6.07;4.30;;;;;;;26.46;54.75;99136.25;5055285;28;20036;-58
2023/07/24 13:29:41;;;;;;;8.45;4.22;;;;;;;26.16;54.30;99126.75;5054431;28;20036;-56
2023/07/24 13:32:45;;;;;;;5.03;3.63;;;;;;;26.03;54.56;99111.19;5054374;28;20068;-58
2023/07/24 13:35:27;;;;;;;15.20;4.75;;;;;;;26.13;55.96;99105.53;5054903;28;20032;-55
2023/07/24 13:38:08;;;;;;;5.70;3.70;;;;;;;25.76;55.46;99090.16;5054854;28;20045;-57
2023/07/24 13:40:58;;;;;;;6.68;4.20;;;;;;;25.48;56.44;99102.06;5055612;28;20037;-53
2023/07/24 13:46:58;;;;;;;6.63;3.83;;;;;;;25.16;59.81;99088.13;5053450;28;20489;-58
2023/07/24 13:53:06;;;;;;;7.20;4.15;;;;;;;25.01;59.49;99080.19;5047557;28;20160;-54
2023/07/24 13:55:41;;;;;;;8.18;4.00;;;;;;;25.00;58.31;99075.84;5054471;28;20044;-56
2023/07/24 13:58:39;;;;;;;6.32;3.88;;;;;;;24.89;58.52;99079.81;5054241;28;20045;-58
2023/07/24 14:01:22;;;;;;;6.50;4.20;;;;;;;24.76;57.74;99080.56;5054071;28;20045;-55
2023/07/24 14:03:53;;;;;;;5.38;4.03;;;;;;;24.92;59.42;99081.16;5054481;28;20094;-56
2023/07/24 14:06:31;;;;;;;7.63;4.30;;;;;;;24.95;58.14;99064.22;5053892;28;20060;-58
2023/07/24 14:08:59;;;;;;;6.32;3.95;;;;;;;24.90;59.01;99051.47;5053794;28;20108;-59
2023/07/24 14:12:02;;;;;;;7.17;4.13;;;;;;;24.80;56.55;99060.63;5053885;28;20033;-62
2023/07/24 14:18:27;;;;;;;8.32;4.15;;;;;;;24.86;58.05;99042.31;5053745;28;20040;-60
2023/07/24 14:21:21;;;;;;;9.27;4.78;;;;;;;24.92;58.74;99037.59;5047963;28;20052;-62
2023/07/24 14:24:15;;;;;;;8.63;4.03;;;;;;;24.94;59.60;99051.72;5053916;28;20383;-61
2023/07/24 14:27:03;;;;;;;5.45;3.72;;;;;;;25.08;61.42;99063.50;5053569;28;20040;-60
2023/07/24 14:30:38;;;;;;;6.35;3.42;;;;;;;25.03;60.66;99058.91;5053343;28;20090;-59
2023/07/24 14:33:15;;;;;;;6.65;4.03;;;;;;;25.16;63.17;99070.97;5053531;28;20055;-59
2023/07/24 14:36:14;;;;;;;6.78;4.28;;;;;;;25.08;63.05;99064.28;5053546;28;20548;-60
2023/07/24 14:38:57;;;;;;;;;;;;;;;24.85;64.35;99065.19;5050618;28;20041;-59
2023/07/24 14:45:28;;;;;;;5.82;3.30;;;;;;;24.59;66.37;99046.50;5053637;28;20058;-60
2023/07/24 14:48:36;;;;;;;5.80;3.28;;;;;;;24.41;68.80;99054.66;5053348;28;20553;-60
2023/07/24 14:51:16;;;;;;;6.10;3.65;;;;;;;24.15;69.81;99040.56;5052978;28;20506;-61
2023/07/24 14:54:17;;;;;;;8.00;5.80;;;;;;;24.07;69.50;99050.97;5053163;28;20029;-62
2023/07/24 15:07:19;;;;;;;6.03;3.47;;;;;;;23.66;71.92;99074.25;5045103;28;20502;-61
2023/07/24 15:10:11;;;;;;;7.03;3.85;;;;;;;23.44;77.29;99083.69;5047518;28;20478;-60
2023/07/24 15:13:00;;;;;;;7.00;3.50;;;;;;;23.17;82.68;99115.97;5021450;28;20520;-61
2023/07/24 15:15:35;;;;;;;6.22;3.60;;;;;;;22.74;86.26;99131.94;5067889;28;20064;-60
2023/07/24 15:18:39;;;;;;;7.32;3.85;;;;;;;22.43;91.46;99136.72;5052505;28;20482;-60
2023/07/24 15:21:50;;;;;;;7.18;3.45;;;;;;;22.02;99.97;99168.53;5052702;28;20449;-60
2023/07/24 15:24:59;;;;;;;12.70;4.30;;;;;;;21.26;100.00;99159.34;5051011;28;20044;-61
2023/07/24 15:28:05;;;;;;;7.07;3.50;;;;;;;20.86;100.00;99155.50;5033996;28;20123;-61
2023/07/24 15:30:36;;;;;;;5.18;3.35;;;;;;;20.60;100.00;99159.16;5051227;28;20045;-60
2023/07/24 15:33:47;;;;;;;6.57;4.32;;;;;;;20.45;100.00;99156.41;5052550;28;20037;-61
2023/07/24 15:36:38;;;;;;;6.90;3.73;;;;;;;20.30;100.00;99133.59;5050917;28;20432;-62
2023/07/24 15:39:37;;;;;;;5.93;3.58;;;;;;;20.23;100.00;99146.56;5052092;28;20270;-62
2023/07/24 15:45:23;;;;;;;6.80;3.33;;;;;;;20.25;100.00;99146.28;5049230;28;20167;-61
2023/07/24 15:51:48;;;;;;;4.47;3.00;;;;;;;20.29;100.00;99159.03;5050286;28;20398;-62
2023/07/24 15:54:23;;;;;;;6.32;3.85;;;;;;;20.44;100.00;99152.03;5040539;28;20533;-62
2023/07/24 15:57:10;;;;;;;4.72;3.08;;;;;;;20.51;100.00;99158.06;5052057;28;20497;-60
2023/07/24 15:59:39;;;;;;;5.55;3.42;;;;;;;20.56;100.00;99169.72;5051814;28;20452;-63
2023/07/24 16:02:30;;;;;;;5.35;3.50;;;;;;;20.58;100.00;99162.13;5052115;28;20036;-63
2023/07/24 16:05:29;;;;;;;5.93;3.15;;;;;;;20.66;100.00;99162.69;5056921;28;20711;-63
2023/07/24 16:07:57;;;;;;;5.38;3.30;;;;;;;20.69;100.00;99163.00;5052466;28;20455;-63
2023/07/24 16:10:32;;;;;;;5.38;3.00;;;;;;;20.75;100.00;99167.34;5060010;28;20243;-63
2023/07/24 16:13:28;;;;;;;5.40;2.85;;;;;;;20.57;100.00;99163.22;5054144;28;20102;-63
2023/07/24 16:16:04;;;;;;;4.22;3.05;;;;;;;20.58;100.00;99161.31;5054652;28;20052;-63
2023/07/24 16:18:30;;;;;;;6.05;3.05;;;;;;;20.60;100.00;99161.88;5060177;28;20189;-65
2023/07/24 16:21:09;;;;;;;4.72;2.83;;;;;;;20.64;100.00;99162.97;5059062;28;20061;-63
2023/07/24 16:23:46;;;;;;;6.30;3.17;;;;;;;20.77;100.00;99148.94;5065096;28;20071;-64
2023/07/24 16:26:39;;;;;;;8.77;5.80;;;;;;;20.86;100.00;99152.78;5058229;28;20044;-64
2023/07/24 16:29:19;;;;;;;5.80;3.30;;;;;;;20.96;100.00;99151.16;5060645;28;20102;-63
2023/07/24 16:32:06;;;;;;;4.90;2.65;;;;;;;20.97;100.00;99155.50;5071505;28;20036;-63
2023/07/24 16:34:53;;;;;;;5.37;3.13;;;;;;;20.84;100.00;99157.63;5071799;28;20098;-62
2023/07/24 16:37:33;;;;;;;5.50;3.20;;;;;;;20.88;100.00;99154.41;5071923;28;20271;-64
2023/07/24 16:40:05;;;;;;;4.90;2.08;;;;;;;20.79;100.00;99160.31;5071395;28;20028;-64
2023/07/24 16:42:54;;;;;;;3.92;2.70;;;;;;;20.72;100.00;99159.75;5071680;28;20090;-64
2023/07/24 16:45:23;;;;;;;5.13;2.95;;;;;;;20.69;100.00;99154.06;5071396;28;20040;-64
2023/07/24 16:48:18;;;;;;;4.55;2.38;;;;;;;20.68;100.00;99155.97;5071597;28;20047;-62